Terminal Aerodrome Forecast
Issued by NWS

Home | Current Version | Previous Version | Text Only | Print | Product List | Glossary On
Versions: 1 2 3 4 5 6 7 8 9 10 11 12 13
000
FTUS43 KICT 262347 CCA
TAFCNU
TAF COR
KCNU 262347Z 2700/2724 34007KT P6SM VCSH OVC025
      TEMPO 2700/2701 BKN015 OVC025
     FM270800 33010KT P6SM OVC015
     FM271300 33012KT P6SM BKN025=

USA.gov is the U.S. government's official web portal to all federal, state and local government web resources and services.